sensor_id;sensor_type;location;lat;lon;timestamp;temperature;humidity
30534;DHT22;17318;52.390;9.754;2022-09-09T00:00:53;16.60;99.90
30534;DHT22;17318;52.390;9.754;2022-09-09T00:03:27;16.60;99.90
30534;DHT22;17318;52.390;9.754;2022-09-09T00:06:21;16.60;99.90
30534;DHT22;17318;52.390;9.754;2022-09-09T00:09:10;16.50;99.90
30534;DHT22;17318;52.390;9.754;2022-09-09T00:11:53;16.50;99.90
30534;DHT22;17318;52.390;9.754;2022-09-09T00:14:47;16.50;99.90
30534;DHT22;17318;52.390;9.754;2022-09-09T00:17:32;16.50;99.90
30534;DHT22;17318;52.390;9.754;2022-09-09T00:20:03;16.50;99.90
30534;DHT22;17318;52.390;9.754;2022-09-09T00:22:30;16.40;99.90
30534;DHT22;17318;52.390;9.754;2022-09-09T00:25:21;16.50;99.90
30534;DHT22;17318;52.390;9.754;2022-09-09T00:27:49;16.40;99.90
30534;DHT22;17318;52.390;9.754;2022-09-09T00:30:28;16.40;99.90
30534;DHT22;17318;52.390;9.754;2022-09-09T00:33:00;16.30;99.90
30534;DHT22;17318;52.390;9.754;2022-09-09T00:35:38;16.40;99.90
30534;DHT22;17318;52.390;9.754;2022-09-09T00:38:32;16.40;99.90
30534;DHT22;17318;52.390;9.754;2022-09-09T00:44:20;16.20;99.90
30534;DHT22;17318;52.390;9.754;2022-09-09T00:46:53;16.30;99.90
30534;DHT22;17318;52.390;9.754;2022-09-09T00:52:08;16.30;99.90
30534;DHT22;17318;52.390;9.754;2022-09-09T00:57:33;16.20;99.90
30534;DHT22;17318;52.390;9.754;2022-09-09T01:03:11;16.20;99.90
30534;DHT22;17318;52.390;9.754;2022-09-09T01:14:39;16.10;99.90
30534;DHT22;17318;52.390;9.754;2022-09-09T01:17:13;16.00;99.90
30534;DHT22;17318;52.390;9.754;2022-09-09T01:28:26;16.10;99.90
30534;DHT22;17318;52.390;9.754;2022-09-09T01:30:53;16.00;99.90
30534;DHT22;17318;52.390;9.754;2022-09-09T01:33:20;16.00;99.90
30534;DHT22;17318;52.390;9.754;2022-09-09T01:35:54;16.00;99.90
30534;DHT22;17318;52.390;9.754;2022-09-09T01:38:22;16.10;99.90
30534;DHT22;17318;52.390;9.754;2022-09-09T01:40:49;16.00;99.90
30534;DHT22;17318;52.390;9.754;2022-09-09T01:43:18;16.00;99.90
30534;DHT22;17318;52.390;9.754;2022-09-09T01:45:46;16.00;99.90
30534;DHT22;17318;52.390;9.754;2022-09-09T01:48:14;15.90;99.90
30534;DHT22;17318;52.390;9.754;2022-09-09T01:50:39;15.90;99.90
30534;DHT22;17318;52.390;9.754;2022-09-09T01:53:05;15.90;99.90
30534;DHT22;17318;52.390;9.754;2022-09-09T01:55:36;15.90;99.90
30534;DHT22;17318;52.390;9.754;2022-09-09T02:03:58;15.90;99.90
30534;DHT22;17318;52.390;9.754;2022-09-09T02:06:40;15.90;99.90
30534;DHT22;17318;52.390;9.754;2022-09-09T02:09:07;15.90;99.90
30534;DHT22;17318;52.390;9.754;2022-09-09T02:11:36;15.90;99.90
30534;DHT22;17318;52.390;9.754;2022-09-09T02:14:27;15.80;99.90
30534;DHT22;17318;52.390;9.754;2022-09-09T02:17:17;15.80;99.90
30534;DHT22;17318;52.390;9.754;2022-09-09T02:19:49;15.80;99.90
30534;DHT22;17318;52.390;9.754;2022-09-09T02:22:19;15.80;99.90
30534;DHT22;17318;52.390;9.754;2022-09-09T02:24:47;15.80;99.90
30534;DHT22;17318;52.390;9.754;2022-09-09T02:27:14;15.80;99.90
30534;DHT22;17318;52.390;9.754;2022-09-09T02:29:42;15.80;99.90
30534;DHT22;17318;52.390;9.754;2022-09-09T02:32:17;15.80;99.90
30534;DHT22;17318;52.390;9.754;2022-09-09T02:34:47;15.80;99.90
30534;DHT22;17318;52.390;9.754;2022-09-09T02:37:17;15.80;99.90
30534;DHT22;17318;52.390;9.754;2022-09-09T02:39:44;15.80;99.90
30534;DHT22;17318;52.390;9.754;2022-09-09T02:42:09;15.80;99.90
30534;DHT22;17318;52.390;9.754;2022-09-09T02:44:35;15.90;99.90
30534;DHT22;17318;52.390;9.754;2022-09-09T02:47:31;15.90;99.90
30534;DHT22;17318;52.390;9.754;2022-09-09T02:50:05;15.90;99.90
30534;DHT22;17318;52.390;9.754;2022-09-09T02:55:16;15.80;99.90
30534;DHT22;17318;52.390;9.754;2022-09-09T02:57:45;15.90;99.90
30534;DHT22;17318;52.390;9.754;2022-09-09T03:00:13;15.90;99.90
30534;DHT22;17318;52.390;9.754;2022-09-09T03:02:38;15.90;99.90
30534;DHT22;17318;52.390;9.754;2022-09-09T03:05:05;15.90;99.90
30534;DHT22;17318;52.390;9.754;2022-09-09T03:07:31;15.90;99.90
30534;DHT22;17318;52.390;9.754;2022-09-09T03:09:57;16.00;99.90
30534;DHT22;17318;52.390;9.754;2022-09-09T03:12:23;15.90;99.90
30534;DHT22;17318;52.390;9.754;2022-09-09T03:14:49;16.00;99.90
30534;DHT22;17318;52.390;9.754;2022-09-09T03:17:15;16.00;99.90
30534;DHT22;17318;52.390;9.754;2022-09-09T03:19:41;16.00;99.90
30534;DHT22;17318;52.390;9.754;2022-09-09T03:22:07;16.00;99.90
30534;DHT22;17318;52.390;9.754;2022-09-09T03:24:33;16.00;99.90
30534;DHT22;17318;52.390;9.754;2022-09-09T03:26:59;16.00;99.90
30534;DHT22;17318;52.390;9.754;2022-09-09T03:29:24;16.10;99.90
30534;DHT22;17318;52.390;9.754;2022-09-09T03:31:50;16.10;99.90
30534;DHT22;17318;52.390;9.754;2022-09-09T03:34:16;16.10;99.90
30534;DHT22;17318;52.390;9.754;2022-09-09T03:36:42;16.10;99.90
30534;DHT22;17318;52.390;9.754;2022-09-09T03:39:07;16.20;99.90
30534;DHT22;17318;52.390;9.754;2022-09-09T03:41:33;16.10;99.90
30534;DHT22;17318;52.390;9.754;2022-09-09T03:43:59;16.10;99.90
30534;DHT22;17318;52.390;9.754;2022-09-09T03:46:25;16.20;99.90
30534;DHT22;17318;52.390;9.754;2022-09-09T03:48:51;16.10;99.90
30534;DHT22;17318;52.390;9.754;2022-09-09T03:51:19;16.10;99.90
30534;DHT22;17318;52.390;9.754;2022-09-09T03:53:46;16.10;99.90
30534;DHT22;17318;52.390;9.754;2022-09-09T03:56:12;16.20;99.90
30534;DHT22;17318;52.390;9.754;2022-09-09T03:58:38;16.20;99.90
30534;DHT22;17318;52.390;9.754;2022-09-09T04:01:09;16.20;99.90
30534;DHT22;17318;52.390;9.754;2022-09-09T04:03:35;16.20;99.90
30534;DHT22;17318;52.390;9.754;2022-09-09T04:06:02;16.20;99.90
30534;DHT22;17318;52.390;9.754;2022-09-09T04:08:33;16.20;99.90
30534;DHT22;17318;52.390;9.754;2022-09-09T04:11:00;16.20;99.90
30534;DHT22;17318;52.390;9.754;2022-09-09T04:13:34;16.20;99.90
30534;DHT22;17318;52.390;9.754;2022-09-09T04:16:02;16.20;99.90
30534;DHT22;17318;52.390;9.754;2022-09-09T04:18:30;16.20;99.90
30534;DHT22;17318;52.390;9.754;2022-09-09T04:20:56;16.20;99.90
30534;DHT22;17318;52.390;9.754;2022-09-09T04:23:23;16.20;99.90
30534;DHT22;17318;52.390;9.754;2022-09-09T04:25:53;16.20;99.90
30534;DHT22;17318;52.390;9.754;2022-09-09T04:28:21;16.20;99.90
30534;DHT22;17318;52.390;9.754;2022-09-09T04:30:48;16.30;99.90
30534;DHT22;17318;52.390;9.754;2022-09-09T04:33:14;16.30;99.90
30534;DHT22;17318;52.390;9.754;2022-09-09T04:35:47;16.30;99.90
30534;DHT22;17318;52.390;9.754;2022-09-09T04:38:13;16.30;99.90
30534;DHT22;17318;52.390;9.754;2022-09-09T04:40:38;16.30;99.90
30534;DHT22;17318;52.390;9.754;2022-09-09T04:43:09;16.30;99.90
30534;DHT22;17318;52.390;9.754;2022-09-09T04:45:35;16.30;99.90
30534;DHT22;17318;52.390;9.754;2022-09-09T04:48:00;16.30;99.90
30534;DHT22;17318;52.390;9.754;2022-09-09T04:50:27;16.30;99.90
30534;DHT22;17318;52.390;9.754;2022-09-09T04:52:54;16.40;99.90
30534;DHT22;17318;52.390;9.754;2022-09-09T04:55:19;16.40;99.90
30534;DHT22;17318;52.390;9.754;2022-09-09T04:57:45;16.40;99.90
30534;DHT22;17318;52.390;9.754;2022-09-09T05:00:12;16.40;99.90
30534;DHT22;17318;52.390;9.754;2022-09-09T05:02:39;16.40;99.90
30534;DHT22;17318;52.390;9.754;2022-09-09T05:05:05;16.40;99.90
30534;DHT22;17318;52.390;9.754;2022-09-09T05:07:31;16.50;99.90
30534;DHT22;17318;52.390;9.754;2022-09-09T05:09:57;16.50;99.90
30534;DHT22;17318;52.390;9.754;2022-09-09T05:12:23;16.50;99.90
30534;DHT22;17318;52.390;9.754;2022-09-09T05:14:53;16.50;99.90
30534;DHT22;17318;52.390;9.754;2022-09-09T05:17:19;16.50;99.90
30534;DHT22;17318;52.390;9.754;2022-09-09T05:19:45;16.60;99.90
30534;DHT22;17318;52.390;9.754;2022-09-09T05:22:11;16.60;99.90
30534;DHT22;17318;52.390;9.754;2022-09-09T05:24:38;16.60;99.90
30534;DHT22;17318;52.390;9.754;2022-09-09T05:27:04;16.60;99.90
30534;DHT22;17318;52.390;9.754;2022-09-09T05:29:32;16.60;99.90
30534;DHT22;17318;52.390;9.754;2022-09-09T05:32:01;16.60;99.90
30534;DHT22;17318;52.390;9.754;2022-09-09T05:34:26;16.60;99.90
30534;DHT22;17318;52.390;9.754;2022-09-09T05:36:52;16.60;99.90
30534;DHT22;17318;52.390;9.754;2022-09-09T05:39:19;16.60;99.90
30534;DHT22;17318;52.390;9.754;2022-09-09T05:41:44;16.70;99.90
30534;DHT22;17318;52.390;9.754;2022-09-09T05:44:10;16.70;99.90
30534;DHT22;17318;52.390;9.754;2022-09-09T05:46:36;16.70;99.90
30534;DHT22;17318;52.390;9.754;2022-09-09T05:49:02;16.70;99.90
30534;DHT22;17318;52.390;9.754;2022-09-09T05:51:29;16.70;99.90
30534;DHT22;17318;52.390;9.754;2022-09-09T05:53:58;16.70;99.90
30534;DHT22;17318;52.390;9.754;2022-09-09T05:56:25;16.70;99.90
30534;DHT22;17318;52.390;9.754;2022-09-09T05:58:53;16.70;99.90
30534;DHT22;17318;52.390;9.754;2022-09-09T06:01:24;16.70;99.90
30534;DHT22;17318;52.390;9.754;2022-09-09T06:03:50;16.80;99.90
30534;DHT22;17318;52.390;9.754;2022-09-09T06:06:18;16.80;99.90
30534;DHT22;17318;52.390;9.754;2022-09-09T06:08:46;16.80;99.90
30534;DHT22;17318;52.390;9.754;2022-09-09T06:11:21;16.90;99.90
30534;DHT22;17318;52.390;9.754;2022-09-09T06:13:47;17.00;99.90
30534;DHT22;17318;52.390;9.754;2022-09-09T06:16:15;17.10;99.90
30534;DHT22;17318;52.390;9.754;2022-09-09T06:18:42;17.00;99.90
30534;DHT22;17318;52.390;9.754;2022-09-09T06:21:21;17.00;99.90
30534;DHT22;17318;52.390;9.754;2022-09-09T06:23:47;17.10;99.90
30534;DHT22;17318;52.390;9.754;2022-09-09T06:26:16;17.20;99.90
30534;DHT22;17318;52.390;9.754;2022-09-09T06:28:44;17.10;99.90
30534;DHT22;17318;52.390;9.754;2022-09-09T06:31:11;17.20;99.90
30534;DHT22;17318;52.390;9.754;2022-09-09T06:33:39;17.20;99.90
30534;DHT22;17318;52.390;9.754;2022-09-09T06:36:07;17.20;99.90
30534;DHT22;17318;52.390;9.754;2022-09-09T06:38:36;17.20;99.90
30534;DHT22;17318;52.390;9.754;2022-09-09T06:41:02;17.20;99.90
30534;DHT22;17318;52.390;9.754;2022-09-09T06:43:31;17.20;99.90
30534;DHT22;17318;52.390;9.754;2022-09-09T06:46:05;17.20;99.90
30534;DHT22;17318;52.390;9.754;2022-09-09T06:48:31;17.20;99.90
30534;DHT22;17318;52.390;9.754;2022-09-09T06:51:01;17.20;99.90
30534;DHT22;17318;52.390;9.754;2022-09-09T06:53:32;17.30;99.90
30534;DHT22;17318;52.390;9.754;2022-09-09T06:56:00;17.30;99.90
30534;DHT22;17318;52.390;9.754;2022-09-09T06:58:31;17.30;99.90
30534;DHT22;17318;52.390;9.754;2022-09-09T07:01:07;17.40;99.90
30534;DHT22;17318;52.390;9.754;2022-09-09T07:03:33;17.40;99.90
30534;DHT22;17318;52.390;9.754;2022-09-09T07:05:59;17.50;99.90
30534;DHT22;17318;52.390;9.754;2022-09-09T07:08:25;17.50;99.90
30534;DHT22;17318;52.390;9.754;2022-09-09T07:10:52;17.50;99.90
30534;DHT22;17318;52.390;9.754;2022-09-09T07:13:24;17.60;99.90
30534;DHT22;17318;52.390;9.754;2022-09-09T07:15:51;17.60;99.90
30534;DHT22;17318;52.390;9.754;2022-09-09T07:18:17;17.70;99.90
30534;DHT22;17318;52.390;9.754;2022-09-09T07:20:43;17.70;99.90
30534;DHT22;17318;52.390;9.754;2022-09-09T07:23:17;17.70;99.90
30534;DHT22;17318;52.390;9.754;2022-09-09T07:25:46;17.70;99.90
30534;DHT22;17318;52.390;9.754;2022-09-09T07:28:13;17.80;99.90
30534;DHT22;17318;52.390;9.754;2022-09-09T07:30:39;17.80;99.90
30534;DHT22;17318;52.390;9.754;2022-09-09T07:33:05;17.80;99.90
30534;DHT22;17318;52.390;9.754;2022-09-09T07:35:31;17.90;99.90
30534;DHT22;17318;52.390;9.754;2022-09-09T07:37:57;17.90;99.90
30534;DHT22;17318;52.390;9.754;2022-09-09T07:40:24;17.90;99.90
30534;DHT22;17318;52.390;9.754;2022-09-09T07:42:50;18.00;99.90
30534;DHT22;17318;52.390;9.754;2022-09-09T07:45:16;18.00;99.90
30534;DHT22;17318;52.390;9.754;2022-09-09T07:47:41;18.10;99.90
30534;DHT22;17318;52.390;9.754;2022-09-09T07:50:09;18.10;99.90
30534;DHT22;17318;52.390;9.754;2022-09-09T07:52:35;18.20;99.90
30534;DHT22;17318;52.390;9.754;2022-09-09T07:55:01;18.20;99.90
30534;DHT22;17318;52.390;9.754;2022-09-09T07:57:29;18.30;99.90
30534;DHT22;17318;52.390;9.754;2022-09-09T07:59:56;18.30;99.90
30534;DHT22;17318;52.390;9.754;2022-09-09T08:02:23;18.30;99.90
30534;DHT22;17318;52.390;9.754;2022-09-09T08:04:49;18.40;99.90
30534;DHT22;17318;52.390;9.754;2022-09-09T08:07:15;18.50;99.90
30534;DHT22;17318;52.390;9.754;2022-09-09T08:09:41;18.50;99.90
30534;DHT22;17318;52.390;9.754;2022-09-09T08:12:07;18.60;99.90
30534;DHT22;17318;52.390;9.754;2022-09-09T08:14:34;18.80;99.90
30534;DHT22;17318;52.390;9.754;2022-09-09T08:17:00;19.00;99.90
30534;DHT22;17318;52.390;9.754;2022-09-09T08:19:26;19.10;99.90
30534;DHT22;17318;52.390;9.754;2022-09-09T08:21:54;19.20;99.90
30534;DHT22;17318;52.390;9.754;2022-09-09T08:24:20;19.40;99.90
30534;DHT22;17318;52.390;9.754;2022-09-09T08:26:47;20.20;99.90
30534;DHT22;17318;52.390;9.754;2022-09-09T08:29:17;21.30;99.90
30534;DHT22;17318;52.390;9.754;2022-09-09T08:31:45;22.50;99.90
30534;DHT22;17318;52.390;9.754;2022-09-09T08:34:12;23.00;98.70
30534;DHT22;17318;52.390;9.754;2022-09-09T08:36:40;22.80;98.80
30534;DHT22;17318;52.390;9.754;2022-09-09T08:39:08;22.40;97.90
30534;DHT22;17318;52.390;9.754;2022-09-09T08:52:19;21.10;98.20
30534;DHT22;17318;52.390;9.754;2022-09-09T08:54:47;21.00;98.10
30534;DHT22;17318;52.390;9.754;2022-09-09T08:57:21;20.90;98.20
30534;DHT22;17318;52.390;9.754;2022-09-09T08:59:52;20.80;98.10
30534;DHT22;17318;52.390;9.754;2022-09-09T09:05:32;20.80;98.30
30534;DHT22;17318;52.390;9.754;2022-09-09T09:10:51;20.70;98.10
30534;DHT22;17318;52.390;9.754;2022-09-09T09:13:21;20.70;97.90
30534;DHT22;17318;52.390;9.754;2022-09-09T09:15:54;20.80;98.40
30534;DHT22;17318;52.390;9.754;2022-09-09T09:18:22;20.90;98.40
30534;DHT22;17318;52.390;9.754;2022-09-09T09:21:10;21.00;98.20
30534;DHT22;17318;52.390;9.754;2022-09-09T09:23:45;21.40;98.50
30534;DHT22;17318;52.390;9.754;2022-09-09T09:26:13;21.70;97.80
30534;DHT22;17318;52.390;9.754;2022-09-09T09:28:39;21.50;97.40
30534;DHT22;17318;52.390;9.754;2022-09-09T09:31:14;21.70;97.70
30534;DHT22;17318;52.390;9.754;2022-09-09T09:33:45;21.70;97.40
30534;DHT22;17318;52.390;9.754;2022-09-09T09:36:12;21.80;97.40
30534;DHT22;17318;52.390;9.754;2022-09-09T09:39:01;21.90;97.40
30534;DHT22;17318;52.390;9.754;2022-09-09T09:41:39;21.90;96.60
30534;DHT22;17318;52.390;9.754;2022-09-09T09:44:23;22.00;96.80
30534;DHT22;17318;52.390;9.754;2022-09-09T09:46:50;22.10;96.00
30534;DHT22;17318;52.390;9.754;2022-09-09T09:49:21;22.30;96.60
30534;DHT22;17318;52.390;9.754;2022-09-09T09:51:47;22.50;96.10
30534;DHT22;17318;52.390;9.754;2022-09-09T09:54:24;22.80;96.00
30534;DHT22;17318;52.390;9.754;2022-09-09T09:56:53;23.30;95.20
30534;DHT22;17318;52.390;9.754;2022-09-09T10:01:45;23.50;94.80
30534;DHT22;17318;52.390;9.754;2022-09-09T10:04:16;23.60;95.00
30534;DHT22;17318;52.390;9.754;2022-09-09T10:06:44;23.50;94.60
30534;DHT22;17318;52.390;9.754;2022-09-09T10:09:30;23.60;95.20
30534;DHT22;17318;52.390;9.754;2022-09-09T10:17:32;25.30;93.50
30534;DHT22;17318;52.390;9.754;2022-09-09T10:29:47;28.10;87.40
30534;DHT22;17318;52.390;9.754;2022-09-09T10:40:48;27.00;83.70
30534;DHT22;17318;52.390;9.754;2022-09-09T10:46:01;25.60;85.70
30534;DHT22;17318;52.390;9.754;2022-09-09T10:56:54;24.20;89.20
30534;DHT22;17318;52.390;9.754;2022-09-09T10:59:28;23.90;90.30
30534;DHT22;17318;52.390;9.754;2022-09-09T11:02:12;23.80;90.60
30534;DHT22;17318;52.390;9.754;2022-09-09T11:04:48;23.50;90.70
30534;DHT22;17318;52.390;9.754;2022-09-09T11:07:27;23.50;91.20
30534;DHT22;17318;52.390;9.754;2022-09-09T11:10:00;23.20;91.20
30534;DHT22;17318;52.390;9.754;2022-09-09T11:12:27;23.10;91.80
30534;DHT22;17318;52.390;9.754;2022-09-09T11:15:08;23.00;91.90
30534;DHT22;17318;52.390;9.754;2022-09-09T11:17:43;22.80;92.40
30534;DHT22;17318;52.390;9.754;2022-09-09T11:20:13;22.70;92.80
30534;DHT22;17318;52.390;9.754;2022-09-09T11:25:30;22.40;93.50
30534;DHT22;17318;52.390;9.754;2022-09-09T11:41:49;21.50;96.80
30534;DHT22;17318;52.390;9.754;2022-09-09T11:44:28;21.20;96.30
30534;DHT22;17318;52.390;9.754;2022-09-09T11:46:56;21.00;95.70
30534;DHT22;17318;52.390;9.754;2022-09-09T11:49:29;20.70;95.30
30534;DHT22;17318;52.390;9.754;2022-09-09T11:51:57;20.40;95.50
30534;DHT22;17318;52.390;9.754;2022-09-09T11:54:28;20.20;95.70
30534;DHT22;17318;52.390;9.754;2022-09-09T11:56:54;20.10;96.20
30534;DHT22;17318;52.390;9.754;2022-09-09T12:02:32;19.80;96.60
30534;DHT22;17318;52.390;9.754;2022-09-09T12:05:11;19.60;96.70
30534;DHT22;17318;52.390;9.754;2022-09-09T12:07:45;19.50;96.90
30534;DHT22;17318;52.390;9.754;2022-09-09T12:10:26;19.40;97.00
30534;DHT22;17318;52.390;9.754;2022-09-09T12:12:52;19.30;96.90
30534;DHT22;17318;52.390;9.754;2022-09-09T12:15:23;19.10;97.30
30534;DHT22;17318;52.390;9.754;2022-09-09T12:17:52;19.00;97.70
30534;DHT22;17318;52.390;9.754;2022-09-09T12:20:54;18.90;97.90
30534;DHT22;17318;52.390;9.754;2022-09-09T12:23:15;18.90;98.10
30534;DHT22;17318;52.390;9.754;2022-09-09T12:28:18;18.90;99.10
30534;DHT22;17318;52.390;9.754;2022-09-09T12:33:44;19.10;99.90
30534;DHT22;17318;52.390;9.754;2022-09-09T12:36:27;19.40;99.90
30534;DHT22;17318;52.390;9.754;2022-09-09T12:38:56;19.50;99.90
30534;DHT22;17318;52.390;9.754;2022-09-09T12:41:27;19.60;99.90
30534;DHT22;17318;52.390;9.754;2022-09-09T12:44:06;19.80;99.90
30534;DHT22;17318;52.390;9.754;2022-09-09T12:46:38;20.00;99.80
30534;DHT22;17318;52.390;9.754;2022-09-09T12:49:18;20.10;99.50
30534;DHT22;17318;52.390;9.754;2022-09-09T12:51:49;20.20;99.40
30534;DHT22;17318;52.390;9.754;2022-09-09T12:54:15;20.40;99.20
30534;DHT22;17318;52.390;9.754;2022-09-09T12:56:46;20.60;99.90
30534;DHT22;17318;52.390;9.754;2022-09-09T12:59:36;20.70;99.50
30534;DHT22;17318;52.390;9.754;2022-09-09T13:02:11;20.80;99.80
30534;DHT22;17318;52.390;9.754;2022-09-09T13:04:36;20.90;99.70
30534;DHT22;17318;52.390;9.754;2022-09-09T13:07:07;21.00;98.70
30534;DHT22;17318;52.390;9.754;2022-09-09T13:09:35;21.00;98.20
30534;DHT22;17318;52.390;9.754;2022-09-09T13:12:01;20.90;97.90
30534;DHT22;17318;52.390;9.754;2022-09-09T13:14:34;20.90;98.40
30534;DHT22;17318;52.390;9.754;2022-09-09T13:17:05;20.90;98.10
30534;DHT22;17318;52.390;9.754;2022-09-09T13:19:35;20.80;98.20
30534;DHT22;17318;52.390;9.754;2022-09-09T13:22:12;20.90;97.80
30534;DHT22;17318;52.390;9.754;2022-09-09T13:24:39;20.90;98.10
30534;DHT22;17318;52.390;9.754;2022-09-09T13:27:34;20.90;98.50
30534;DHT22;17318;52.390;9.754;2022-09-09T13:30:23;20.80;98.50
30534;DHT22;17318;52.390;9.754;2022-09-09T13:33:05;20.90;98.80
30534;DHT22;17318;52.390;9.754;2022-09-09T13:35:32;20.80;99.70
30534;DHT22;17318;52.390;9.754;2022-09-09T13:37:59;20.70;99.70
30534;DHT22;17318;52.390;9.754;2022-09-09T13:40:31;20.80;99.60
30534;DHT22;17318;52.390;9.754;2022-09-09T13:42:57;20.70;99.60
30534;DHT22;17318;52.390;9.754;2022-09-09T13:45:25;20.70;99.70
30534;DHT22;17318;52.390;9.754;2022-09-09T13:47:54;20.70;99.60
30534;DHT22;17318;52.390;9.754;2022-09-09T13:50:27;20.70;99.00
30534;DHT22;17318;52.390;9.754;2022-09-09T13:52:55;20.70;98.80
30534;DHT22;17318;52.390;9.754;2022-09-09T13:55:27;20.70;99.40
30534;DHT22;17318;52.390;9.754;2022-09-09T14:00:21;20.70;99.90
30534;DHT22;17318;52.390;9.754;2022-09-09T14:02:47;20.70;99.90
30534;DHT22;17318;52.390;9.754;2022-09-09T14:05:13;20.70;99.90
30534;DHT22;17318;52.390;9.754;2022-09-09T14:07:42;20.70;99.90
30534;DHT22;17318;52.390;9.754;2022-09-09T14:10:09;20.70;99.90
30534;DHT22;17318;52.390;9.754;2022-09-09T14:12:35;20.70;99.90
30534;DHT22;17318;52.390;9.754;2022-09-09T14:15:02;20.60;99.90
30534;DHT22;17318;52.390;9.754;2022-09-09T14:17:28;20.70;99.90
30534;DHT22;17318;52.390;9.754;2022-09-09T14:19:57;20.60;99.90
30534;DHT22;17318;52.390;9.754;2022-09-09T14:22:23;20.70;99.90
30534;DHT22;17318;52.390;9.754;2022-09-09T14:24:49;20.70;99.90
30534;DHT22;17318;52.390;9.754;2022-09-09T14:27:16;20.70;99.90
30534;DHT22;17318;52.390;9.754;2022-09-09T14:29:43;20.70;99.90
30534;DHT22;17318;52.390;9.754;2022-09-09T14:32:10;20.60;99.90
30534;DHT22;17318;52.390;9.754;2022-09-09T14:34:36;20.70;99.90
30534;DHT22;17318;52.390;9.754;2022-09-09T14:37:01;20.60;99.90
30534;DHT22;17318;52.390;9.754;2022-09-09T14:39:27;20.60;99.90
30534;DHT22;17318;52.390;9.754;2022-09-09T14:41:53;20.60;99.90
30534;DHT22;17318;52.390;9.754;2022-09-09T14:44:19;20.60;99.80
30534;DHT22;17318;52.390;9.754;2022-09-09T14:46:44;20.60;99.80
30534;DHT22;17318;52.390;9.754;2022-09-09T14:49:10;20.60;99.60
30534;DHT22;17318;52.390;9.754;2022-09-09T14:51:36;20.70;99.70
30534;DHT22;17318;52.390;9.754;2022-09-09T14:54:02;20.70;99.40
30534;DHT22;17318;52.390;9.754;2022-09-09T14:56:31;20.70;99.40
30534;DHT22;17318;52.390;9.754;2022-09-09T14:58:58;20.70;99.30
30534;DHT22;17318;52.390;9.754;2022-09-09T15:01:26;20.70;99.40
30534;DHT22;17318;52.390;9.754;2022-09-09T15:04:01;20.70;99.30
30534;DHT22;17318;52.390;9.754;2022-09-09T15:06:29;20.70;98.90
30534;DHT22;17318;52.390;9.754;2022-09-09T15:08:56;20.70;98.70
30534;DHT22;17318;52.390;9.754;2022-09-09T15:11:27;20.70;98.60
30534;DHT22;17318;52.390;9.754;2022-09-09T15:13:53;20.70;98.60
30534;DHT22;17318;52.390;9.754;2022-09-09T15:16:21;20.70;98.30
30534;DHT22;17318;52.390;9.754;2022-09-09T15:18:51;20.70;97.50
30534;DHT22;17318;52.390;9.754;2022-09-09T15:21:18;20.70;97.80
30534;DHT22;17318;52.390;9.754;2022-09-09T15:23:45;20.70;97.80
30534;DHT22;17318;52.390;9.754;2022-09-09T15:26:11;20.70;97.60
30534;DHT22;17318;52.390;9.754;2022-09-09T15:28:39;20.70;97.60
30534;DHT22;17318;52.390;9.754;2022-09-09T15:33:48;20.80;97.70
30534;DHT22;17318;52.390;9.754;2022-09-09T15:36:24;20.80;97.80
30534;DHT22;17318;52.390;9.754;2022-09-09T15:38:51;20.80;97.90
30534;DHT22;17318;52.390;9.754;2022-09-09T15:41:19;20.80;97.90
30534;DHT22;17318;52.390;9.754;2022-09-09T15:43:47;20.80;98.40
30534;DHT22;17318;52.390;9.754;2022-09-09T15:46:30;20.80;98.90
30534;DHT22;17318;52.390;9.754;2022-09-09T15:49:30;20.90;98.80
30534;DHT22;17318;52.390;9.754;2022-09-09T15:52:00;20.90;98.40
30534;DHT22;17318;52.390;9.754;2022-09-09T15:54:31;20.90;98.30
30534;DHT22;17318;52.390;9.754;2022-09-09T15:56:59;20.80;98.30
30534;DHT22;17318;52.390;9.754;2022-09-09T15:59:27;20.80;98.30
30534;DHT22;17318;52.390;9.754;2022-09-09T16:01:54;20.80;98.30
30534;DHT22;17318;52.390;9.754;2022-09-09T16:04:21;20.90;98.40
30534;DHT22;17318;52.390;9.754;2022-09-09T16:06:51;20.80;98.80
30534;DHT22;17318;52.390;9.754;2022-09-09T16:09:18;20.90;98.70
30534;DHT22;17318;52.390;9.754;2022-09-09T16:11:43;20.90;98.70
30534;DHT22;17318;52.390;9.754;2022-09-09T16:14:09;20.90;98.80
30534;DHT22;17318;52.390;9.754;2022-09-09T16:16:36;20.90;98.90
30534;DHT22;17318;52.390;9.754;2022-09-09T16:19:05;20.90;98.90
30534;DHT22;17318;52.390;9.754;2022-09-09T16:21:37;20.90;98.90
30534;DHT22;17318;52.390;9.754;2022-09-09T16:24:06;20.90;98.80
30534;DHT22;17318;52.390;9.754;2022-09-09T16:26:34;20.90;98.70
30534;DHT22;17318;52.390;9.754;2022-09-09T16:29:01;20.90;98.60
30534;DHT22;17318;52.390;9.754;2022-09-09T16:31:28;20.90;98.60
30534;DHT22;17318;52.390;9.754;2022-09-09T16:33:54;20.90;98.80
30534;DHT22;17318;52.390;9.754;2022-09-09T16:36:22;20.90;98.90
30534;DHT22;17318;52.390;9.754;2022-09-09T16:38:51;20.90;98.80
30534;DHT22;17318;52.390;9.754;2022-09-09T16:41:17;20.80;99.10
30534;DHT22;17318;52.390;9.754;2022-09-09T16:43:43;20.80;99.90
30534;DHT22;17318;52.390;9.754;2022-09-09T16:46:17;20.90;99.90
30534;DHT22;17318;52.390;9.754;2022-09-09T16:48:44;20.80;99.90
30534;DHT22;17318;52.390;9.754;2022-09-09T16:51:18;20.80;99.90
30534;DHT22;17318;52.390;9.754;2022-09-09T16:53:45;20.80;99.90
30534;DHT22;17318;52.390;9.754;2022-09-09T16:56:16;20.70;99.90
30534;DHT22;17318;52.390;9.754;2022-09-09T16:58:48;20.70;99.90
30534;DHT22;17318;52.390;9.754;2022-09-09T17:01:14;20.70;99.90
30534;DHT22;17318;52.390;9.754;2022-09-09T17:03:40;20.70;99.90
30534;DHT22;17318;52.390;9.754;2022-09-09T17:06:10;20.70;99.90
30534;DHT22;17318;52.390;9.754;2022-09-09T17:08:37;20.60;99.90
30534;DHT22;17318;52.390;9.754;2022-09-09T17:11:16;20.60;99.90
30534;DHT22;17318;52.390;9.754;2022-09-09T17:13:44;20.50;99.90
30534;DHT22;17318;52.390;9.754;2022-09-09T17:16:11;20.60;99.90
30534;DHT22;17318;52.390;9.754;2022-09-09T17:18:38;20.50;99.90
30534;DHT22;17318;52.390;9.754;2022-09-09T17:21:12;20.40;99.90
30534;DHT22;17318;52.390;9.754;2022-09-09T17:23:40;20.40;99.90
30534;DHT22;17318;52.390;9.754;2022-09-09T17:26:12;20.30;99.90
30534;DHT22;17318;52.390;9.754;2022-09-09T17:28:38;20.30;99.90
30534;DHT22;17318;52.390;9.754;2022-09-09T17:31:09;20.30;99.90
30534;DHT22;17318;52.390;9.754;2022-09-09T17:33:37;20.30;99.90
30534;DHT22;17318;52.390;9.754;2022-09-09T17:36:13;20.20;99.90
30534;DHT22;17318;52.390;9.754;2022-09-09T17:38:40;20.20;99.90
30534;DHT22;17318;52.390;9.754;2022-09-09T17:41:14;20.20;99.90
30534;DHT22;17318;52.390;9.754;2022-09-09T17:43:40;20.10;99.90
30534;DHT22;17318;52.390;9.754;2022-09-09T17:46:10;20.00;99.90
30534;DHT22;17318;52.390;9.754;2022-09-09T17:48:37;20.00;99.90